createdAt,value
2019-03-18T00:02:09.344Z,7.44
2019-03-18T00:04:42.652Z,7.43
2019-03-18T00:07:16.108Z,7.45
2019-03-18T00:09:50.545Z,7.46
2019-03-18T00:12:23.964Z,7.40
2019-03-18T00:15:01.407Z,7.42
2019-03-18T00:17:32.396Z,7.41
2019-03-18T00:20:05.914Z,7.43
2019-03-18T00:22:39.212Z,7.43
2019-03-18T00:25:13.020Z,7.45
2019-03-18T00:27:46.379Z,7.42
2019-03-18T00:30:20.013Z,7.45
2019-03-18T00:32:53.326Z,7.41
2019-03-18T00:35:26.654Z,7.42
2019-03-18T00:37:59.963Z,7.39
2019-03-18T00:40:33.942Z,7.42
2019-03-18T00:43:07.103Z,7.42
2019-03-18T00:45:41.897Z,7.43
2019-03-18T00:48:15.064Z,7.43
2019-03-18T00:50:48.237Z,7.40
2019-03-18T00:53:21.724Z,7.40
2019-03-18T00:55:55.220Z,7.39
2019-03-18T00:58:28.364Z,7.37
2019-03-18T01:01:01.556Z,7.37
2019-03-18T01:03:34.712Z,7.34
2019-03-18T01:06:08.836Z,7.29
2019-03-18T01:08:42.861Z,7.26
2019-03-18T01:11:18.077Z,7.27
2019-03-18T01:13:51.280Z,7.27
2019-03-18T01:16:24.596Z,7.23
2019-03-18T01:18:57.799Z,7.23
2019-03-18T01:21:31.964Z,7.21
2019-03-18T01:24:05.999Z,7.19
2019-03-18T01:26:39.291Z,7.20
2019-03-18T01:29:12.418Z,7.19
2019-03-18T01:31:45.622Z,7.18
2019-03-18T01:34:18.788Z,7.18
2019-03-18T01:36:51.987Z,7.18
2019-03-18T01:39:25.203Z,7.12
2019-03-18T01:41:58.396Z,7.14
2019-03-18T01:44:32.667Z,7.14
2019-03-18T01:47:05.848Z,7.10
2019-03-18T01:49:39.071Z,7.10
2019-03-18T01:52:12.272Z,7.08
2019-03-18T01:54:45.456Z,7.02
2019-03-18T01:57:18.672Z,7.06
2019-03-18T01:59:51.887Z,7.07
2019-03-18T02:02:25.055Z,7.05
2019-03-18T02:04:58.219Z,7.08
2019-03-18T02:07:31.373Z,7.01
2019-03-18T02:10:04.627Z,7.01
2019-03-18T02:12:37.767Z,7.02
2019-03-18T02:15:11.102Z,7.01
2019-03-18T02:17:44.862Z,6.96
2019-03-18T02:20:19.766Z,6.95
2019-03-18T02:22:52.953Z,6.93
2019-03-18T02:25:26.201Z,6.90
2019-03-18T02:27:59.445Z,6.92
2019-03-18T02:30:32.620Z,6.91
2019-03-18T02:33:05.857Z,6.93
2019-03-18T02:35:39.000Z,6.88
2019-03-18T02:38:12.289Z,6.88
2019-03-18T02:40:45.460Z,6.84
2019-03-18T02:43:18.629Z,6.77
2019-03-18T02:46:08.993Z,6.76
2019-03-18T02:48:27.648Z,6.79
2019-03-18T02:51:00.833Z,6.78
2019-03-18T02:53:34.381Z,6.80
2019-03-18T02:56:07.712Z,6.80
2019-03-18T02:58:40.885Z,6.80
2019-03-18T03:01:14.078Z,6.81
2019-03-18T03:03:48.203Z,6.77
2019-03-18T03:06:21.382Z,6.78
2019-03-18T03:08:54.595Z,6.76
2019-03-18T03:11:27.771Z,6.71
2019-03-18T03:14:00.955Z,6.70
2019-03-18T03:16:34.133Z,6.71
2019-03-18T03:19:07.340Z,6.67
2019-03-18T03:21:40.479Z,6.66
2019-03-18T03:24:13.790Z,6.64
2019-03-18T03:26:46.930Z,6.61
2019-03-18T03:29:20.155Z,6.58
2019-03-18T03:31:53.354Z,6.56
2019-03-18T03:34:26.572Z,6.53
2019-03-18T03:36:59.752Z,6.48
2019-03-18T03:39:33.022Z,6.44
2019-03-18T03:42:06.231Z,6.43
2019-03-18T03:44:39.683Z,6.41
2019-03-18T03:47:12.841Z,6.38
2019-03-18T03:49:46.377Z,6.38
2019-03-18T03:52:19.829Z,6.36
2019-03-18T03:54:53.206Z,6.34
2019-03-18T03:57:26.314Z,6.31
2019-03-18T03:59:59.639Z,6.31
2019-03-18T04:02:34.214Z,6.26
2019-03-18T04:05:07.656Z,6.23
2019-03-18T04:07:40.938Z,6.19
2019-03-18T04:10:14.161Z,6.20
2019-03-18T04:12:47.720Z,6.20
2019-03-18T04:15:20.951Z,6.18
2019-03-18T04:17:54.148Z,6.20
2019-03-18T04:20:27.342Z,6.18
2019-03-18T04:23:01.416Z,6.13
2019-03-18T04:25:34.957Z,6.13
2019-03-18T04:28:08.114Z,6.08
2019-03-18T04:30:41.740Z,6.08
2019-03-18T04:33:14.813Z,6.05
2019-03-18T04:35:47.991Z,6.05
2019-03-18T04:38:21.197Z,6.01
2019-03-18T04:40:54.552Z,5.99
2019-03-18T04:43:27.757Z,5.98
2019-03-18T04:46:01.347Z,5.93
2019-03-18T04:48:43.243Z,5.89
2019-03-18T04:51:20.652Z,5.88
2019-03-18T04:53:58.018Z,5.87
2019-03-18T04:56:31.871Z,5.83
2019-03-18T04:59:06.192Z,5.83
2019-03-18T05:01:55.476Z,5.80
2019-03-18T05:05:22.177Z,5.78
2019-03-18T05:07:59.994Z,5.78
2019-03-18T05:10:35.396Z,5.78
2019-03-18T05:13:13.019Z,5.79
2019-03-18T05:15:49.889Z,5.78
2019-03-18T05:18:26.514Z,5.74
2019-03-18T05:21:02.180Z,5.72
2019-03-18T05:23:37.945Z,5.72
2019-03-18T05:26:14.810Z,5.71
2019-03-18T05:28:50.125Z,5.71
2019-03-18T05:31:35.100Z,5.75
2019-03-18T05:34:18.173Z,5.75
2019-03-18T05:36:52.401Z,5.74
2019-03-18T05:39:39.536Z,5.74
2019-03-18T05:42:16.604Z,5.81
2019-03-18T05:44:50.919Z,6.08
2019-03-18T05:47:25.647Z,6.47
2019-03-18T05:49:59.250Z,6.61
2019-03-18T05:52:32.837Z,6.66
2019-03-18T05:55:07.657Z,6.83
2019-03-18T05:57:44.655Z,6.91
2019-03-18T06:00:19.739Z,6.89
2019-03-18T06:02:53.274Z,6.77
2019-03-18T06:05:26.925Z,7.10
2019-03-18T06:08:00.496Z,7.14
2019-03-18T06:10:34.715Z,7.05
2019-03-18T06:13:08.962Z,7.02
2019-03-18T06:15:43.257Z,7.02
2019-03-18T06:18:17.047Z,7.52
2019-03-18T06:20:50.840Z,7.67
2019-03-18T06:23:25.214Z,7.67
2019-03-18T06:25:59.021Z,7.76
2019-03-18T06:28:32.687Z,7.74
2019-03-18T06:31:06.428Z,7.71
2019-03-18T07:09:30.868Z,8.46
2019-03-18T07:25:01.929Z,9.35
2019-03-18T07:28:22.450Z,9.69
2019-03-18T07:39:19.239Z,9.00
2019-03-18T07:54:32.867Z,8.70
2019-03-18T08:05:16.631Z,8.38
2019-03-18T08:30:07.568Z,8.64
2019-03-18T10:20:44.214Z,8.70
2019-03-18T10:23:26.444Z,8.63
2019-03-18T10:26:13.856Z,8.51
2019-03-18T10:28:55.152Z,8.46
2019-03-18T10:32:03.969Z,8.33
2019-03-18T10:43:50.767Z,8.00
2019-03-18T10:47:35.790Z,8.00
2019-03-18T10:51:14.927Z,7.93
2019-03-18T10:54:35.459Z,7.86
2019-03-18T11:33:33.622Z,8.79
2019-03-18T11:37:09.924Z,8.85
2019-03-18T11:43:58.122Z,9.12
2019-03-18T11:55:40.196Z,9.25
2019-03-18T12:42:13.290Z,9.09
2019-03-18T12:52:21.653Z,9.12
2019-03-18T12:55:24.286Z,9.09
2019-03-18T12:59:16.588Z,9.17
2019-03-18T13:06:16.624Z,9.43
2019-03-18T13:09:29.187Z,9.53
2019-03-18T13:13:24.310Z,9.62
2019-03-18T13:16:27.935Z,9.62
2019-03-18T13:19:20.728Z,9.47
2019-03-18T13:22:08.222Z,9.38
2019-03-18T13:24:47.140Z,9.38
2019-03-18T13:27:30.582Z,9.31
2019-03-18T13:30:15.443Z,9.23
2019-03-18T13:50:41.756Z,8.84
2019-03-18T13:53:36.081Z,8.83
2019-03-18T13:56:12.317Z,8.80
2019-03-18T14:11:38.512Z,8.80
2019-03-18T14:14:38.038Z,8.86
2019-03-18T14:29:00.250Z,8.93
2019-03-18T14:32:31.378Z,8.98
2019-03-18T14:35:16.140Z,9.18
2019-03-18T14:37:53.543Z,9.14
2019-03-18T14:40:30.708Z,9.11
2019-03-18T14:43:37.868Z,9.03
2019-03-18T14:47:10.750Z,9.03
2019-03-18T15:09:19.104Z,9.30
2019-03-18T15:12:57.346Z,9.17
2019-03-18T15:16:47.850Z,9.20
2019-03-18T15:19:36.717Z,9.10
2019-03-18T15:22:14.864Z,9.05
2019-03-18T15:24:51.255Z,9.02
2019-03-18T16:18:48.444Z,8.71
2019-03-18T16:29:43.693Z,8.58
2019-03-18T16:32:17.012Z,8.58
2019-03-18T16:34:50.261Z,8.57
2019-03-18T16:37:23.412Z,8.53
2019-03-18T16:39:56.755Z,8.52
2019-03-18T16:42:30.131Z,8.53
2019-03-18T16:45:03.537Z,8.50
2019-03-18T16:47:36.900Z,8.52
2019-03-18T16:50:12.920Z,8.47
2019-03-18T16:52:46.200Z,8.46
2019-03-18T16:55:19.504Z,8.49
2019-03-18T16:58:02.885Z,8.46
2019-03-18T17:01:45.073Z,8.49
2019-03-18T17:04:49.674Z,8.49
2019-03-18T17:07:48.443Z,8.49
2019-03-18T17:10:29.177Z,8.44
2019-03-18T17:13:24.850Z,8.41
2019-03-18T17:16:07.774Z,8.38
2019-03-18T17:19:00.536Z,8.38
2019-03-18T17:21:41.045Z,8.39
2019-03-18T17:24:50.119Z,8.37
2019-03-18T17:28:03.156Z,8.32
2019-03-18T17:31:03.846Z,8.28
2019-03-18T17:34:28.005Z,8.25
2019-03-18T17:41:46.454Z,8.05
2019-03-18T17:44:30.779Z,7.93
2019-03-18T17:47:29.910Z,7.83
2019-03-18T17:50:06.310Z,7.81
2019-03-18T17:52:42.066Z,7.73
2019-03-18T17:55:16.732Z,7.70
2019-03-18T17:57:55.978Z,7.65
2019-03-18T18:00:40.776Z,7.66
2019-03-18T18:03:35.606Z,7.65
2019-03-18T18:06:59.085Z,7.60
2019-03-18T18:10:23.103Z,7.59
2019-03-18T18:13:16.243Z,7.58
2019-03-18T18:16:44.853Z,7.59
2019-03-18T18:19:47.324Z,7.55
2019-03-18T18:26:34.787Z,7.54
2019-03-18T18:29:13.247Z,7.44
2019-03-18T18:31:50.347Z,7.34
2019-03-18T18:34:24.313Z,7.28
2019-03-18T18:37:00.878Z,7.28
2019-03-18T18:39:55.585Z,7.25
2019-03-18T18:42:41.828Z,7.26
2019-03-18T18:58:40.294Z,7.01
2019-03-18T19:01:21.323Z,6.95
2019-03-18T19:03:55.394Z,6.87
2019-03-18T19:06:39.232Z,6.82
2019-03-18T19:10:08.450Z,6.78
2019-03-18T19:13:44.749Z,6.76
2019-03-18T19:16:20.123Z,6.73
2019-03-18T19:23:09.965Z,6.62
2019-03-18T19:26:21.327Z,6.55
2019-03-18T19:29:15.270Z,6.51
2019-03-18T19:35:21.147Z,6.53
2019-03-18T19:38:46.045Z,6.49
2019-03-18T19:41:29.202Z,6.47
2019-03-18T19:44:04.427Z,6.50
2019-03-18T19:46:48.017Z,6.50
2019-03-18T19:53:12.798Z,6.55
2019-03-18T19:55:48.897Z,6.47
2019-03-18T19:58:31.944Z,6.52
2019-03-18T20:01:14.076Z,6.51
2019-03-18T20:04:04.912Z,6.48
2019-03-18T20:07:00.012Z,6.42
2019-03-18T20:09:55.551Z,6.42
2019-03-18T20:13:16.983Z,6.43
2019-03-18T20:16:01.595Z,6.44
2019-03-18T20:18:58.704Z,6.44
2019-03-18T20:21:32.912Z,6.42
2019-03-18T20:24:09.820Z,6.44
2019-03-18T20:26:45.472Z,6.43
2019-03-18T20:29:21.476Z,6.44
2019-03-18T20:32:04.191Z,6.42
2019-03-18T20:34:47.768Z,6.45
2019-03-18T20:37:25.755Z,6.43
2019-03-18T20:40:31.568Z,6.43
2019-03-18T20:43:04.204Z,6.44
2019-03-18T20:45:44.364Z,6.43
2019-03-18T20:48:27.766Z,6.40
2019-03-18T20:51:13.470Z,6.38
2019-03-18T20:53:47.879Z,6.40
2019-03-18T20:56:26.355Z,6.45
2019-03-18T20:59:09.691Z,6.45
2019-03-18T21:01:48.569Z,6.46
2019-03-18T21:04:32.963Z,6.43
2019-03-18T21:07:43.625Z,6.46
2019-03-18T21:10:20.376Z,6.44
2019-03-18T21:13:01.809Z,6.46
2019-03-18T21:16:00.178Z,6.47
2019-03-18T21:18:49.664Z,6.46
2019-03-18T21:21:28.194Z,6.39
2019-03-18T21:27:47.947Z,6.31
2019-03-18T21:30:42.151Z,6.35
2019-03-18T21:34:14.658Z,6.30
2019-03-18T21:37:01.154Z,6.18
2019-03-18T21:39:42.897Z,6.12
2019-03-18T21:42:21.092Z,6.13
2019-03-18T21:44:57.347Z,6.03
2019-03-18T21:47:34.115Z,6.00
2019-03-18T21:50:08.092Z,6.00
2019-03-18T21:52:41.887Z,5.99
2019-03-18T21:55:40.267Z,5.96
2019-03-18T21:58:17.983Z,5.92
2019-03-18T22:00:52.437Z,5.88
2019-03-18T22:03:26.179Z,5.83
2019-03-18T22:06:00.978Z,5.85
2019-03-18T22:08:34.452Z,5.84
2019-03-18T22:11:07.800Z,5.80
2019-03-18T22:13:41.546Z,5.77
2019-03-18T22:16:15.209Z,5.73
2019-03-18T22:18:48.533Z,5.71
2019-03-18T22:21:21.745Z,5.72
2019-03-18T22:23:55.042Z,5.66
2019-03-18T22:26:29.421Z,5.67
2019-03-18T22:29:02.614Z,5.62
2019-03-18T22:31:35.858Z,5.59
2019-03-18T22:34:10.201Z,5.59
2019-03-18T22:36:43.470Z,5.56
2019-03-18T22:39:17.643Z,5.57
2019-03-18T22:41:51.025Z,5.60
2019-03-18T22:44:24.731Z,5.63
2019-03-18T22:46:57.972Z,5.62
2019-03-18T22:49:32.206Z,5.63
2019-03-18T22:52:05.588Z,5.63
2019-03-18T22:54:39.044Z,5.65
2019-03-18T22:57:12.411Z,5.63
2019-03-18T22:59:46.173Z,5.66
2019-03-18T23:02:20.241Z,5.70
2019-03-18T23:04:54.397Z,5.73
2019-03-18T23:07:29.124Z,5.71
2019-03-18T23:10:04.984Z,5.67
2019-03-18T23:12:38.763Z,5.64
2019-03-18T23:15:13.087Z,5.58
2019-03-18T23:17:48.648Z,5.55
2019-03-18T23:20:22.074Z,5.52
2019-03-18T23:22:55.764Z,5.47
2019-03-18T23:25:29.125Z,5.47
2019-03-18T23:28:02.582Z,5.44
2019-03-18T23:30:36.302Z,5.38
2019-03-18T23:33:09.611Z,5.33
2019-03-18T23:35:43.325Z,5.35
2019-03-18T23:38:17.008Z,5.32
2019-03-18T23:40:51.389Z,5.30
2019-03-18T23:43:25.156Z,5.29
2019-03-18T23:45:58.972Z,5.17
2019-03-18T23:48:34.897Z,5.17
2019-03-18T23:51:13.359Z,5.17
2019-03-18T23:53:47.365Z,5.12
2019-03-18T23:56:21.569Z,5.10
2019-03-18T23:58:55.449Z,5.12
